M I D A S
Marine Information and Data Acquisition System
Tripno 2295 of the Zeeleeuw from 2012-04-24 10:33:03 to 2012-04-24 16:19:00
Back to CruiseResearch ActivitiesStationsMapUnderway DataData graphs

EquipmentUnitsComment
TimeDGPSUTC
LatitudeDGPSDM.mWGS84
LongitudeDGPSDM.mWGS84
TemperatureSBE03/SBE38deg celciusITS90
ConductivitySBE21S/mITS90
SalinitySBE21 Practical Salinity Units
ChlorophylAChelsea fluorimeterg/lCalibrated in Aceton
Missing or incorrect values are displayed as -999
Sea surface data collected by the RV Zeeleeuw from 2012-04-24 10:14:09 to 2012-04-24 16:22:50
Time Latitude Longitude Temperature Conductivity Salinity ChlorophylA
2012-04-24 10:15:14 51°13.636 2°56.018 16.9755 1.023844 6.482302 -2.458615
2012-04-24 10:16:15 51°13.636 2°56.018 16.9576 1.021269 6.465567 -2.458615
2012-04-24 10:17:15 51°13.637 2°56.018 16.9447 1.022505 6.474469 -2.458615
2012-04-24 10:18:15 51°13.636 2°56.018 16.955 1.021269 6.466038 -2.458615
2012-04-24 10:19:14 51°13.637 2°56.018 16.9514 1.019518 6.454215 -2.458615
2012-04-24 10:20:15 51°13.636 2°56.019 16.9424 1.021784 6.469787 -2.458615
2012-04-24 10:21:14 51°13.636 2°56.019 16.9331 1.023432 6.481029 -2.458615
2012-04-24 10:22:14 51°13.637 2°56.019 16.9475 1.022196 6.472715 -2.458615
2012-04-24 10:23:14 51°13.637 2°56.019 16.9464 1.02302 6.478336 -2.458615
2012-04-24 10:24:14 51°13.637 2°56.018 16.9524 1.020651 6.462059 -2.458615
2012-04-24 10:25:15 51°13.635 2°56.018 16.9527 1.022814 6.476931 -2.458615
2012-04-24 10:26:14 51°13.636 2°56.017 16.9614 1.023226 6.47986 -2.458615
2012-04-24 10:27:15 51°13.636 2°56.017 16.9574 1.022711 6.476465 -2.458615
2012-04-24 10:28:14 51°13.635 2°56.018 16.9586 1.023947 6.484897 -2.458615
2012-04-24 10:29:15 51°13.635 2°56.018 16.9503 1.026935 6.505279 -2.458615
2012-04-24 10:30:15 51°13.636 2°56.018 16.9578 1.025287 6.494033 -2.458615
2012-04-24 10:31:15 51°13.636 2°56.017 16.9742 1.027759 6.510784 -2.458615
2012-04-24 10:32:15 51°13.636 2°56.018 16.9767 1.025183 6.493212 -2.458615
2012-04-24 10:33:14 51°13.636 2°56.017 16.9831 1.034351 6.555907 -2.458615
2012-04-24 10:34:13 51°13.635 2°56.015 16.7067 1.033836 6.55239 -2.458615
2012-04-24 10:35:14 51°13.654 2°55.941 16.9153 1.03569 6.564812 -2.458615
2012-04-24 10:36:14 51°13.687 2°55.824 16.9577 1.027347 6.507616 -2.458615
2012-04-24 10:37:15 51°13.75 2°55.718 16.9388 1.022608 6.475408 -2.458615
2012-04-24 10:38:15 51°13.828 2°55.635 16.9693 1.025183 6.492856 -2.458615
2012-04-24 10:39:14 51°13.897 2°55.604 16.9836 1.027244 6.506794 -2.458615
2012-04-24 10:40:15 51°13.95 2°55.624 16.948 1.033836 6.551911 -2.458615
2012-04-24 10:41:14 51°13.971 2°55.64 17.0074 1.018385 6.446019 -2.458615
2012-04-24 10:42:14 51°13.997 2°55.567 16.7551 1.038781 6.586279 -2.458615
2012-04-24 10:43:15 51°14.11 2°55.448 16.6426 1.042695 6.612422 -2.458615
2012-04-24 10:44:15 51°14.252 2°55.309 16.6566 1.019621 6.454682 -2.458615
2012-04-24 10:45:15 51°14.406 2°55.151 16.4123 1.006333 6.3639 -2.458615
2012-04-24 10:46:14 51°14.56 2°54.964 16.4499 1.070303 6.801302 -2.458615
2012-04-24 10:47:13 51°14.715 2°54.77 16.4972 1.041459 6.604216 -2.458615
2012-04-24 10:48:12 51°14.868 2°54.572 16.3443 1.032394 6.541946 -2.458615
2012-04-24 10:49:11 51°15.043 2°54.458 16.4091 1.038884 6.586743 -2.458615
2012-04-24 10:50:11 51°15.216 2°54.535 16.4655 1.071127 6.80819 -2.458615
2012-04-24 10:51:11 51°15.359 2°54.716 16.5957 0.982952 6.205636 -2.458615
2012-04-24 10:52:11 51°15.519 2°54.865 16.5539 0.988102 6.241214 -2.458615
2012-04-24 10:53:11 51°15.681 2°55.015 16.4196 1.001801 6.334892 -2.458615
2012-04-24 10:54:11 51°15.814 2°55.225 16.4542 0.965545 6.088657 -2.458615
2012-04-24 10:55:11 51°15.952 2°55.425 16.49 0.992222 6.270037 -2.458615
2012-04-24 10:56:11 51°16.102 2°55.604 16.3605 1.007672 6.375346 -2.458615
2012-04-24 10:57:11 51°16.243 2°55.798 16.488 1.039399 6.592306 -2.458615
2012-04-24 10:58:11 51°16.376 2°56.003 16.4354 1.040944 6.603469 -2.458615
2012-04-24 10:59:10 51°16.467 2°56.254 16.3632 0.951023 5.991047 -2.458615
2012-04-24 11:00:11 51°16.552 2°56.524 16.4815 1.085035 6.906186 -2.458615
2012-04-24 11:01:11 51°16.666 2°56.762 16.3863 0.992531 6.27294 -2.458615
2012-04-24 11:02:11 51°16.79 2°56.991 16.4022 1.065564 6.773052 -2.458615
2012-04-24 11:03:11 51°16.888 2°57.251 16.3801 1.071333 6.812462 -2.458615
2012-04-24 11:04:11 51°16.974 2°57.522 16.4527 1.08998 6.940255 -2.458615
2012-04-24 11:05:11 51°17.072 2°57.78 16.4344 1.10224 7.02537 -2.458615
2012-04-24 11:06:11 51°17.158 2°58.047 16.4216 1.050112 6.667378 -2.458615
2012-04-24 11:07:11 51°17.259 2°58.299 16.3755 1.023741 6.487398 -2.458615
2012-04-24 11:08:11 51°17.348 2°58.562 16.4187 1.05073 6.672582 -2.458615
2012-04-24 11:09:11 51°17.459 2°58.794 16.4386 1.045992 6.639796 -2.458615
2012-04-24 11:10:11 51°17.588 2°59.005 16.4404 1.046507 6.643684 -2.458615
2012-04-24 11:11:11 51°17.718 2°59.214 16.4378 1.045374 6.636175 -2.458615
2012-04-24 11:12:11 51°17.869 2°59.389 16.3996 1.037133 6.580065 -2.458615
2012-04-24 11:13:11 51°17.994 2°59.61 16.3779 1.052173 6.683062 -2.458615
2012-04-24 11:14:11 51°18.126 2°59.822 16.4205 1.026935 6.510863 -2.458615
2012-04-24 11:15:10 51°18.25 3°0.036 16.4232 1.028995 6.525174 -2.458615
2012-04-24 11:16:11 51°18.367 3°0.272 16.4152 1.024566 6.495158 -2.458615
2012-04-24 11:17:11 51°18.481 3°0.505 16.3703 1.041253 6.609564 -2.458615
2012-04-24 11:18:11 51°18.587 3°0.751 16.4364 1.037545 6.584806 -2.458615
2012-04-24 11:19:11 51°18.682 3°1.011 16.4344 1.067419 6.789601 -2.458615
2012-04-24 11:20:11 51°18.783 3°1.268 16.4156 1.036206 6.575529 -2.458615
2012-04-24 11:21:11 51°18.895 3°1.508 16.4595 1.057838 6.724065 -2.458615
2012-04-24 11:22:11 51°19.006 3°1.749 16.4265 1.030128 6.534228 -2.458615
2012-04-24 11:23:11 51°19.124 3°1.979 16.4324 1.019621 6.463409 -2.458615
2012-04-24 11:24:11 51°19.223 3°2.228 16.4543 1.065874 6.780618 -2.458615
2012-04-24 11:25:11 51°19.303 3°2.497 16.4671 1.071849 6.8216 -2.458615
2012-04-24 11:26:10 51°19.381 3°2.766 16.4759 1.044035 6.631861 -2.458615
2012-04-24 11:27:11 51°19.467 3°3.041 16.5185 1.032394 6.552349 -2.458615
2012-04-24 11:28:11 51°19.575 3°3.286 16.4999 1.045683 6.643264 -2.458615
2012-04-24 11:29:11 51°19.684 3°3.528 16.4903 1.036515 6.580889 -2.458615
2012-04-24 11:30:11 51°19.784 3°3.78 16.5046 1.016325 6.443144 -2.458615
2012-04-24 11:31:11 51°19.873 3°4.044 16.5211 1.024772 6.500603 -2.458615
2012-04-24 11:32:11 51°19.974 3°4.297 16.5091 1.004479 6.36242 -2.458615
2012-04-24 11:33:11 51°20.067 3°4.557 16.5268 1.030952 6.543805 -2.458615
2012-04-24 11:34:11 51°20.166 3°4.813 16.4487 0.990059 6.264125 -2.458615
2012-04-24 11:35:11 51°20.261 3°5.072 16.5098 1.100076 7.018579 -2.458615
2012-04-24 11:36:11 51°20.365 3°5.322 16.508 1.038369 6.595021 -2.458615
2012-04-24 11:37:11 51°20.47 3°5.572 16.504 1.069067 6.806128 -2.458615
2012-04-24 11:38:11 51°20.559 3°5.84 16.5064 1.03909 6.60068 -2.458615
2012-04-24 11:39:11 51°20.647 3°6.109 16.5279 1.045065 6.641827 -2.458615
2012-04-24 11:40:11 51°20.744 3°6.37 16.5314 1.034764 6.571434 -2.458615
2012-04-24 11:41:11 51°20.829 3°6.643 16.5386 1.023124 6.492904 -2.458615
2012-04-24 11:42:11 51°20.907 3°6.925 16.5182 0.946698 5.972089 -2.458615
2012-04-24 11:43:11 51°20.997 3°7.199 16.5617 1.025905 6.512157 -2.458615
2012-04-24 11:44:11 51°21.103 3°7.457 16.5383 1.037545 6.592155 -2.458615
2012-04-24 11:45:11 51°21.203 3°7.726 16.5757 1.074733 6.847903 -2.458615
2012-04-24 11:46:11 51°21.292 3°8.01 16.5813 1.02951 6.53789 -2.458615
2012-04-24 11:47:11 51°21.394 3°8.285 16.5751 1.036206 6.584073 -2.458615
2012-04-24 11:48:11 51°21.48 3°8.574 16.5935 1.008188 6.39286 -2.458615
2012-04-24 11:49:11 51°21.569 3°8.862 16.6031 0.978523 6.190793 -2.458615
2012-04-24 11:50:11 51°21.66 3°9.15 16.599 1.036721 6.58796 -2.458615
2012-04-24 11:51:10 51°21.737 3°9.444 16.5615 1.059281 6.744302 -2.458615
2012-04-24 11:52:11 51°21.798 3°9.762 16.5867 1.048155 6.667506 -2.458615
2012-04-24 11:53:11 51°21.878 3°10.065 16.6246 1.071334 6.826554 -2.458615
2012-04-24 11:54:11 51°21.952 3°10.375 16.594 1.052585 6.698367 -2.458615
2012-04-24 11:55:11 51°21.994 3°10.704 16.628 1.073806 6.845169 -2.458615
2012-04-24 11:56:11 51°22.001 3°11.042 16.5996 1.152518 7.389002 -2.458615
2012-04-24 11:57:11 51°21.892 3°11.332 16.6568 1.119342 7.160026 -2.458615
2012-04-24 11:58:14 51°21.72 3°11.57 16.6163 1.100489 7.029646 -2.458615
2012-04-24 11:59:14 51°21.546 3°11.765 16.632 0.997372 6.322049 -2.458615
2012-04-24 12:00:14 51°21.376 3°11.96 16.6515 1.065977 6.792628 -2.458615
2012-04-24 12:01:14 51°21.206 3°12.117 16.6945 1.072879 6.840426 -2.458615
2012-04-24 12:02:14 51°21.033 3°12.246 16.6926 1.063505 6.776269 -2.458615
2012-04-24 12:03:13 51°20.866 3°12.302 16.715 1.108319 7.085421 -2.458615
2012-04-24 12:04:12 51°20.713 3°12.213 16.7613 1.078854 6.882261 -2.458615
2012-04-24 12:05:11 51°20.562 3°12.108 16.7599 1.091732 6.970876 -2.458615
2012-04-24 12:06:11 51°20.418 3°11.996 16.7917 1.083078 6.911569 -2.458615
2012-04-24 12:07:12 51°20.291 3°11.9 16.799 1.084829 6.923747 -2.458615
2012-04-24 12:08:14 51°20.185 3°11.82 16.8249 1.071231 6.830475 -2.458615
2012-04-24 12:09:12 51°20.109 3°11.762 16.796 1.054748 6.71751 -2.458615
2012-04-24 12:10:12 51°20.094 3°11.747 16.8282 1.055366 6.721876 -2.458615
2012-04-24 12:11:14 51°20.093 3°11.729 16.8218 1.029613 6.545303 -2.458615
2012-04-24 12:12:14 51°20.11 3°11.686 16.8345 1.067522 6.805736 -2.458615
2012-04-24 12:13:14 51°20.137 3°11.664 16.8488 1.065771 6.793204 -2.458615
2012-04-24 12:14:14 51°20.144 3°11.661 16.8699 1.063092 6.775052 -2.458615
2012-04-24 12:15:14 51°20.144 3°11.66 16.8869 1.066904 6.801239 -2.458615
2012-04-24 12:16:14 51°20.144 3°11.66 16.8949 1.058354 6.742509 -2.458615
2012-04-24 12:17:14 51°20.146 3°11.662 16.9095 1.062062 6.767852 -2.458615
2012-04-24 12:18:14 51°20.148 3°11.662 16.9099 1.060002 6.754074 -2.458615
2012-04-24 12:19:14 51°20.148 3°11.662 16.9325 1.066904 6.801239 -2.458615
2012-04-24 12:20:14 51°20.148 3°11.662 16.9525 1.059281 6.748751 -2.458615
2012-04-24 12:21:14 51°20.148 3°11.662 16.9671 1.057736 6.738141 -2.458615
2012-04-24 12:22:14 51°20.148 3°11.662 16.9879 1.053409 6.708319 -2.458615
2012-04-24 12:23:13 51°20.148 3°11.662 16.9925 1.055984 6.725995 -2.458615
2012-04-24 12:24:11 51°20.148 3°11.661 16.9977 1.061547 6.764191 -2.458615
2012-04-24 12:25:14 51°20.148 3°11.661 17.0207 1.061444 6.763359 -2.458615
2012-04-24 12:26:14 51°20.148 3°11.661 17.0274 1.05856 6.743429 -2.458615
2012-04-24 12:27:13 51°20.148 3°11.661 17.0487 1.060105 6.753915 -2.458615
2012-04-24 12:28:13 51°20.148 3°11.661 17.0739 1.054336 6.714067 -2.458615
2012-04-24 12:29:14 51°20.148 3°11.661 17.0992 1.052482 6.701096 -2.458615
2012-04-24 12:30:14 51°20.148 3°11.661 17.1051 1.051658 6.695197 -2.458615
2012-04-24 12:31:14 51°20.149 3°11.661 17.1151 1.04661 6.66033 -2.458615
2012-04-24 12:32:12 51°20.148 3°11.661 17.1362 1.04764 6.66715 -2.458615
2012-04-24 12:33:14 51°20.148 3°11.661 17.1483 1.055881 6.723563 -2.458615
2012-04-24 12:34:14 51°20.148 3°11.662 17.1541 1.051349 6.692218 -2.458615
2012-04-24 12:35:14 51°20.148 3°11.662 17.1667 1.051658 6.694093 -2.458615
2012-04-24 12:36:12 51°20.148 3°11.662 17.1985 1.048567 6.672775 -2.458615
2012-04-24 12:37:14 51°20.148 3°11.662 17.1937 1.046919 6.661229 -2.458615
2012-04-24 12:38:13 51°20.148 3°11.663 17.2111 1.047537 6.665344 -2.458615
2012-04-24 12:39:14 51°20.148 3°11.663 17.2175 1.052482 6.699133 -2.458615
2012-04-24 12:40:14 51°20.148 3°11.663 17.2328 1.054748 6.714434 -2.458615
2012-04-24 12:41:14 51°20.148 3°11.663 17.2529 1.052997 6.702175 -2.458615
2012-04-24 12:42:14 51°20.148 3°11.663 17.2571 1.049185 6.67579 -2.458615
2012-04-24 12:43:14 51°20.148 3°11.663 17.2578 1.052276 6.696738 -2.458615
2012-04-24 12:44:14 51°20.148 3°11.662 17.2869 1.047537 6.664002 -2.458615
2012-04-24 12:45:14 51°20.148 3°11.662 17.3193 1.050731 6.685529 -2.458615
2012-04-24 12:46:14 51°20.148 3°11.662 17.3076 1.050525 6.683749 -2.458615
2012-04-24 12:47:14 51°20.148 3°11.662 17.3166 1.050628 6.684089 -2.458615
2012-04-24 12:48:14 51°20.148 3°11.662 17.3256 1.047846 6.664656 -2.458615
2012-04-24 12:49:14 51°20.148 3°11.662 17.3478 1.046301 6.653823 -2.458615
2012-04-24 12:50:14 51°20.148 3°11.662 17.3445 1.051452 6.688882 -2.458615
2012-04-24 12:51:14 51°20.148 3°11.662 17.3533 1.050112 6.679335 -2.458615
2012-04-24 12:52:13 51°20.148 3°11.662 17.3644 1.052997 6.698863 -2.458615
2012-04-24 12:53:14 51°20.148 3°11.662 17.374 1.055057 6.712743 -2.458615
2012-04-24 12:54:14 51°20.148 3°11.661 17.3791 1.056911 6.725089 -2.458615
2012-04-24 12:55:14 51°20.148 3°11.661 17.3958 1.060311 6.748159 -2.458615
2012-04-24 12:56:14 51°20.148 3°11.662 17.3925 1.049803 6.67575 -2.458615
2012-04-24 12:57:14 51°20.148 3°11.662 17.4152 1.057117 6.725518 -2.458615
2012-04-24 12:58:14 51°20.148 3°11.662 17.4314 1.058869 6.737157 -2.458615
2012-04-24 12:59:14 51°20.148 3°11.662 17.4341 1.056808 6.722661 -2.458615
2012-04-24 13:00:14 51°20.148 3°11.662 17.4604 1.050524 6.679225 -2.458615
2012-04-24 13:01:13 51°20.148 3°11.662 17.4675 1.051864 6.688156 -2.458615
2012-04-24 13:02:14 51°20.148 3°11.661 17.4764 1.058869 6.735924 -2.458615
2012-04-24 13:03:14 51°20.148 3°11.661 17.4633 1.056808 6.721554 -2.458615
2012-04-24 13:04:14 51°20.148 3°11.661 17.5002 1.055572 6.712712 -2.458615
2012-04-24 13:05:14 51°20.148 3°11.661 17.5 1.05856 6.732943 -2.458615
2012-04-24 13:06:14 51°20.148 3°11.661 17.52 1.057014 6.721983 -2.458615
2012-04-24 13:07:14 51°20.148 3°11.661 17.5126 1.05619 6.716089 -2.458615
2012-04-24 13:08:14 51°20.149 3°11.661 17.5316 1.05619 6.715843 -2.458615
2012-04-24 13:09:14 51°20.149 3°11.661 17.524 1.05856 6.731835 -2.458615
2012-04-24 13:10:14 51°20.149 3°11.661 17.5545 1.060414 6.744175 -2.458615
2012-04-24 13:11:14 51°20.15 3°11.661 17.5592 1.055778 6.712038 -2.458615
2012-04-24 13:12:14 51°20.149 3°11.661 17.5552 1.055675 6.710964 -2.458615
2012-04-24 13:13:14 51°20.149 3°11.661 17.5672 1.054027 6.699305 -2.458615
2012-04-24 13:14:13 51°20.149 3°11.661 17.5898 1.053203 6.693293 -2.458615
2012-04-24 13:15:14 51°20.148 3°11.661 17.5899 1.051039 6.678234 -2.458615
2012-04-24 13:16:14 51°20.148 3°11.661 17.5916 1.050833 6.676335 -2.458615
2012-04-24 13:17:14 51°20.148 3°11.661 17.6031 1.048258 6.658583 -2.458615
2012-04-24 13:18:14 51°20.149 3°11.662 17.618 1.047331 6.651873 -2.458615
2012-04-24 13:19:14 51°20.149 3°11.662 17.625 1.050112 6.670545 -2.458615
2012-04-24 13:20:14 51°20.149 3°11.662 17.6409 1.047743 6.654085 -2.458615
2012-04-24 13:21:14 51°20.149 3°11.663 17.6495 1.047846 6.654669 -2.458615
2012-04-24 13:22:14 51°20.148 3°11.662 17.6467 1.047846 6.654304 -2.458615
2012-04-24 13:23:14 51°20.148 3°11.662 17.6642 1.047846 6.654061 -2.458615
2012-04-24 13:24:14 51°20.148 3°11.661 17.674 1.048155 6.655811 -2.458615
2012-04-24 13:25:14 51°20.148 3°11.661 17.6639 1.050524 6.671659 -2.458615
2012-04-24 13:26:14 51°20.148 3°11.661 17.677 1.048567 6.6579 -2.458615
2012-04-24 13:27:14 51°20.148 3°11.661 17.6805 1.05073 6.672338 -2.458615
2012-04-24 13:28:14 51°20.148 3°11.661 17.7101 1.053821 6.693122 -2.458615
2012-04-24 13:29:14 51°20.148 3°11.662 17.7105 1.05176 6.678534 -2.458615
2012-04-24 13:30:14 51°20.148 3°11.662 17.7137 1.050833 6.671946 -2.458615
2012-04-24 13:31:14 51°20.147 3°11.662 17.7357 1.052069 6.679917 -2.458615
2012-04-24 13:32:14 51°20.147 3°11.662 17.7412 1.049906 6.664629 -2.458615
2012-04-24 13:33:14 51°20.147 3°11.662 17.7318 1.052482 6.682004 -2.458615
2012-04-24 13:34:14 51°20.147 3°11.662 17.7464 1.048773 6.656392 -2.458615
2012-04-24 13:35:14 51°20.148 3°11.662 17.7502 1.051348 6.673642 -2.458615
2012-04-24 13:36:14 51°20.148 3°11.662 17.761 1.057838 6.717804 -2.458615
2012-04-24 13:37:14 51°20.148 3°11.662 17.7645 1.050524 6.66764 -2.458615
2012-04-24 13:38:14 51°20.148 3°11.662 17.7793 1.049906 6.662683 -2.458615
2012-04-24 13:39:14 51°20.148 3°11.663 17.7874 1.052584 6.680757 -2.458615
2012-04-24 13:40:14 51°20.148 3°11.663 17.7923 1.053306 6.685324 -2.458615
2012-04-24 13:41:14 51°20.148 3°11.662 17.8056 1.049803 6.661127 -2.458615
2012-04-24 13:42:14 51°20.148 3°11.663 17.8118 1.05073 6.66698 -2.458615
2012-04-24 13:43:14 51°20.148 3°11.663 17.8197 1.052584 6.679295 -2.458615
2012-04-24 13:44:14 51°20.148 3°11.663 17.8232 1.050627 6.665425 -2.458615
2012-04-24 13:45:14 51°20.148 3°11.662 17.8274 1.054233 6.689834 -2.458615
2012-04-24 13:46:14 51°20.148 3°11.662 17.8472 1.050833 6.666225 -2.458615
2012-04-24 13:47:14 51°20.148 3°11.661 17.8551 1.049906 6.659644 -2.458615
2012-04-24 13:48:14 51°20.148 3°11.661 17.8627 1.051657 6.671251 -2.458615
2012-04-24 13:49:14 51°20.147 3°11.661 17.8585 1.051245 6.668191 -2.458615
2012-04-24 13:50:14 51°20.147 3°11.661 17.8455 1.051451 6.669356 -2.458615
2012-04-24 13:51:14 51°20.148 3°11.661 17.8756 1.053924 6.685891 -2.458615
2012-04-24 13:52:14 51°20.147 3°11.661 17.8543 1.052996 6.679188 -2.458615
2012-04-24 13:53:14 51°20.148 3°11.662 17.8762 1.052687 6.67671 -2.458615
2012-04-24 13:54:14 51°20.148 3°11.662 17.8647 1.053924 6.684794 -2.458615
2012-04-24 13:55:14 51°20.148 3°11.662 17.8909 1.052893 6.677266 -2.458615
2012-04-24 13:56:14 51°20.148 3°11.662 17.8956 1.053305 6.679717 -2.458615
2012-04-24 13:57:14 51°20.148 3°11.661 17.9037 1.055057 6.69132 -2.458615
2012-04-24 13:58:14 51°20.148 3°11.662 17.8973 1.055366 6.693066 -2.458615
2012-04-24 13:59:13 51°20.148 3°11.662 17.9124 1.051348 6.665127 -2.458615
2012-04-24 14:00:14 51°20.148 3°11.662 17.9061 1.053923 6.682479 -2.458615
2012-04-24 14:01:14 51°20.148 3°11.662 17.9008 1.054336 6.684808 -2.458615
2012-04-24 14:02:14 51°20.147 3°11.662 17.7996 1.05516 6.690195 -2.458615
2012-04-24 14:03:14 51°20.147 3°11.662 17.7176 1.050936 6.660976 -2.458615
2012-04-24 14:04:14 51°20.147 3°11.661 17.6797 1.052481 6.671166 -2.458615
2012-04-24 14:05:14 51°20.147 3°11.661 17.5575 1.057632 6.706113 -2.458615
2012-04-24 14:06:14 51°20.148 3°11.662 17.5698 1.06371 6.747289 -2.458615
2012-04-24 14:07:14 51°20.147 3°11.661 17.6041 1.052275 6.668665 -2.458615
2012-04-24 14:08:14 51°20.148 3°11.662 17.6349 1.052481 6.669708 -2.458615
2012-04-24 14:09:14 51°20.148 3°11.661 17.6503 1.061237 6.729039 -2.458615
2012-04-24 14:10:14 51°20.147 3°11.661 17.6494 1.054438 6.682224 -2.458615
2012-04-24 14:11:14 51°20.148 3°11.663 17.6702 1.060722 6.724662 -2.458615
2012-04-24 14:12:14 51°20.148 3°11.663 17.6742 1.055469 6.688285 -2.458615
2012-04-24 14:13:14 51°20.149 3°11.663 17.7013 1.055572 6.688623 -2.458615
2012-04-24 14:14:14 51°20.149 3°11.662 17.7084 1.058044 6.705142 -2.458615
2012-04-24 14:15:14 51°20.149 3°11.662 17.6989 1.054954 6.68355 -2.458615
2012-04-24 14:16:14 51°20.148 3°11.662 17.709 1.055881 6.689515 -2.458615
2012-04-24 14:17:14 51°20.148 3°11.662 17.7369 1.054438 6.679183 -2.458615
2012-04-24 14:18:14 51°20.148 3°11.661 17.7303 1.052893 6.668392 -2.458615
2012-04-24 14:19:14 51°20.149 3°11.662 17.7548 1.057014 6.696156 -2.458615
2012-04-24 14:20:14 51°20.149 3°11.661 17.7134 1.060104 6.717136 -2.458615
2012-04-24 14:21:13 51°20.149 3°11.662 17.7252 1.063401 6.739283 -2.458615
2012-04-24 14:22:14 51°20.15 3°11.662 17.745 1.062268 6.731176 -2.458615
2012-04-24 14:23:14 51°20.148 3°11.662 17.7565 1.061031 6.722122 -2.458615
2012-04-24 14:24:13 51°20.149 3°11.662 17.7785 1.060722 6.719645 -2.458615
2012-04-24 14:25:13 51°20.147 3°11.662 17.7726 1.06371 6.739677 -2.458615
2012-04-24 14:26:11 51°20.146 3°11.662 17.7927 1.061237 6.722306 -2.458615
2012-04-24 14:27:12 51°20.147 3°11.662 17.8079 1.069994 6.781863 -2.458615
2012-04-24 14:28:12 51°20.147 3°11.661 17.8168 1.063298 6.735638 -2.458615
2012-04-24 14:29:14 51°20.147 3°11.662 17.8127 1.068242 6.768914 -2.458615
2012-04-24 14:30:14 51°20.148 3°11.661 17.7907 1.077308 6.830609 -2.458615
2012-04-24 14:31:13 51°20.148 3°11.662 17.7889 1.079059 6.842083 -2.458615
2012-04-24 14:32:13 51°20.148 3°11.662 17.8437 1.069685 6.777409 -2.458615
2012-04-24 14:33:14 51°20.145 3°11.663 17.8441 1.055159 6.677785 -2.458615
2012-04-24 14:34:14 51°20.149 3°11.671 17.8709 1.058765 6.702015 -2.458615
2012-04-24 14:35:14 51°20.166 3°11.685 17.8825 1.054747 6.674126 -2.458615
2012-04-24 14:36:14 51°20.205 3°11.711 17.8511 1.052172 6.656082 -2.458615
2012-04-24 14:37:12 51°20.281 3°11.762 17.6988 1.055468 6.678193 -2.458615
2012-04-24 14:38:11 51°20.38 3°11.874 17.5235 1.067212 6.758436 -2.458615
2012-04-24 14:39:11 51°20.48 3°12.052 17.6973 1.046506 6.616626 -2.458615
2012-04-24 14:40:11 51°20.582 3°12.247 17.657 1.06577 6.747856 -2.458615
2012-04-24 14:41:11 51°20.7 3°12.406 17.922 1.020857 6.440911 -2.458615
2012-04-24 14:42:14 51°20.859 3°12.427 17.7678 1.0326 6.520638 -2.458615
2012-04-24 14:43:14 51°21.002 3°12.346 17.5968 1.034969 6.536521 -2.458615
2012-04-24 14:44:14 51°21.138 3°12.219 17.5829 1.041974 6.584436 -2.458615
2012-04-24 14:45:14 51°21.273 3°12.075 17.6601 1.071642 6.786953 -2.458615
2012-04-24 14:46:14 51°21.404 3°11.938 17.5801 1.050524 6.64207 -2.458615
2012-04-24 14:47:14 51°21.535 3°11.819 17.7916 1.028891 6.494589 -2.458615
2012-04-24 14:48:14 51°21.678 3°11.688 17.5974 1.025492 6.471008 -2.458615
2012-04-24 14:49:14 51°21.841 3°11.512 17.5657 1.026419 6.477075 -2.458615
2012-04-24 14:50:12 51°22.004 3°11.355 17.5209 1.020651 6.437523 -2.458615
2012-04-24 14:51:11 51°22.151 3°11.181 17.6576 1.033115 6.521891 -2.458615
2012-04-24 14:52:10 51°22.222 3°10.933 17.5063 1.084107 6.869352 -2.458615
2012-04-24 14:53:11 51°22.212 3°10.655 17.5581 1.080192 6.844105 -2.458615
2012-04-24 14:54:10 51°22.136 3°10.413 17.4665 1.072363 6.790889 -2.458615
2012-04-24 14:55:11 51°22.045 3°10.175 17.5053 1.135929 7.2243 -2.458615
2012-04-24 14:56:11 51°21.979 3°9.928 17.4005 1.516465 9.880085 -2.458615
2012-04-24 14:57:11 51°22.02 3°9.829 17.5603 1.138196 7.241698 -2.458615
2012-04-24 14:58:11 51°22.062 3°9.843 17.5424 1.128099 7.170456 -2.458615
2012-04-24 14:59:11 51°22.084 3°9.888 17.575 1.106566 7.022677 -2.458615
2012-04-24 15:00:11 51°22.102 3°9.936 17.5303 1.08215 6.855234 -2.458615
2012-04-24 15:01:10 51°22.117 3°9.983 17.5706 1.097603 6.960467 -2.458615
2012-04-24 15:02:11 51°22.134 3°10.032 17.5894 1.054541 6.667025 -2.458615
2012-04-24 15:03:10 51°22.178 3°10.053 17.5948 1.043725 6.59205 -2.458615
2012-04-24 15:04:11 51°22.19 3°10.004 17.4241 1.066285 6.745365 -2.458615
2012-04-24 15:05:10 51°22.107 3°9.828 17.5662 1.112542 7.064999 -2.458615
2012-04-24 15:06:11 51°21.99 3°9.608 17.6121 1.189302 7.588602 -2.458615
2012-04-24 15:07:11 51°21.902 3°9.361 17.5652 1.143038 7.274156 -2.458615
2012-04-24 15:08:11 51°21.794 3°9.135 17.6042 1.088331 6.897462 -2.458615
2012-04-24 15:09:11 51°21.694 3°8.899 17.6382 1.073805 6.796783 -2.458615
2012-04-24 15:10:10 51°21.594 3°8.67 17.6692 1.095852 6.948239 -2.458615
2012-04-24 15:11:11 51°21.489 3°8.435 17.6375 1.15159 7.33197 -2.458615
2012-04-24 15:12:10 51°21.402 3°8.194 17.6536 1.129953 7.183305 -2.458615
2012-04-24 15:13:11 51°21.309 3°7.945 17.718 1.101518 6.987624 -2.458615
2012-04-24 15:14:11 51°21.201 3°7.72 17.7022 1.041458 6.575554 -2.458615
2012-04-24 15:15:11 51°21.092 3°7.494 17.7424 1.217227 7.786593 -2.458615
2012-04-24 15:16:11 51°20.988 3°7.263 17.7463 1.149426 7.314978 -2.458615
2012-04-24 15:17:10 51°20.887 3°7.037 17.7638 1.195897 7.636963 -2.458615
2012-04-24 15:18:11 51°20.797 3°6.787 17.3 1.114705 7.077634 -2.458615
2012-04-24 15:19:10 51°20.708 3°6.549 17.3926 1.083695 6.865664 -2.458615
2012-04-24 15:20:11 51°20.605 3°6.313 17.4846 1.07432 6.802274 -2.458615
2012-04-24 15:21:10 51°20.5 3°6.089 17.3764 1.066697 6.748788 -2.458615
2012-04-24 15:22:11 51°20.386 3°5.863 17.474 1.10636 7.020629 -2.458615
2012-04-24 15:23:11 51°20.282 3°5.632 17.4986 1.071642 6.782762 -2.458615
2012-04-24 15:24:11 51°20.193 3°5.385 17.4791 1.091318 6.912733 -2.458615
2012-04-24 15:25:11 51°20.101 3°5.139 17.454 1.100591 6.986992 -2.458615
2012-04-24 15:26:11 51°19.989 3°4.913 17.4478 1.059692 6.70834 -2.458615
2012-04-24 15:27:11 51°19.876 3°4.683 17.4853 1.03878 6.56556 -2.458615
2012-04-24 15:28:10 51°19.774 3°4.447 17.4773 1.201152 7.683967 -2.458615
2012-04-24 15:29:11 51°19.678 3°4.195 17.4374 1.167767 7.450373 -2.458615
2012-04-24 15:30:10 51°19.586 3°3.949 17.5289 1.113057 7.071226 -2.458615
2012-04-24 15:31:11 51°19.487 3°3.701 17.5017 1.088846 6.906376 -2.458615
2012-04-24 15:32:11 51°19.372 3°3.477 17.5049 1.171888 7.47713 -2.458615
2012-04-24 15:33:11 51°19.275 3°3.232 17.5079 1.067727 6.76269 -2.458615
2012-04-24 15:34:11 51°19.155 3°3.013 17.4852 1.189199 7.59631 -2.458615
2012-04-24 15:35:10 51°19.037 3°2.798 17.505 1.009423 6.360824 -2.458615
2012-04-24 15:36:11 51°18.919 3°2.568 17.4952 1.0975 6.966089 -2.458615
2012-04-24 15:37:10 51°18.809 3°2.339 17.5471 1.083386 6.869292 -2.458615
2012-04-24 15:38:11 51°18.694 3°2.105 17.4691 1.195382 7.640632 -2.458615
2012-04-24 15:39:10 51°18.576 3°1.886 17.4706 1.145614 7.296488 -2.458615
2012-04-24 15:40:11 51°18.464 3°1.651 17.4895 1.184253 7.563716 -2.458615
2012-04-24 15:41:10 51°18.369 3°1.408 17.5279 1.121917 7.133131 -2.458615
2012-04-24 15:42:11 51°18.265 3°1.167 17.47 1.190745 7.608494 -2.458615
2012-04-24 15:43:11 51°18.157 3°0.934 17.4771 1.244021 7.986894 -2.458615
2012-04-24 15:44:11 51°18.054 3°0.693 17.5192 1.106669 7.028106 -2.458615
2012-04-24 15:45:11 51°17.942 3°0.462 17.5041 1.080914 6.855758 -2.458615
2012-04-24 15:46:10 51°17.828 3°0.244 17.5 1.190126 7.597041 -2.458615
2012-04-24 15:47:11 51°17.709 3°0.017 17.5228 1.112542 7.06654 -2.458615
2012-04-24 15:48:10 51°17.605 2°59.786 17.5101 1.134899 7.224845 -2.458615
2012-04-24 15:49:11 51°17.504 2°59.544 17.5299 1.136341 7.229493 -2.458615
2012-04-24 15:50:11 51°17.394 2°59.316 17.4897 1.174876 7.4924 -2.458615
2012-04-24 15:51:11 51°17.287 2°59.086 17.5186 1.111717 7.063333 -2.458615
2012-04-24 15:52:11 51°17.179 2°58.858 17.5459 1.146335 7.30264 -2.458615
2012-04-24 15:53:10 51°17.065 2°58.646 17.5164 1.08524 6.879594 -2.458615
2012-04-24 15:54:11 51°16.953 2°58.421 17.5237 1.213723 7.756745 -2.458615
2012-04-24 15:55:10 51°16.87 2°58.174 17.5168 1.112233 7.066606 -2.458615
2012-04-24 15:56:11 51°16.772 2°57.934 17.524 1.068654 6.76361 -2.458615
2012-04-24 15:57:11 51°16.665 2°57.702 17.5358 1.044137 6.599526 -2.458615
2012-04-24 15:58:11 51°16.559 2°57.461 17.5363 1.142317 7.266958 -2.458615
2012-04-24 15:59:11 51°16.454 2°57.223 17.534 1.095543 6.950544 -2.458615
2012-04-24 16:00:11 51°16.344 2°56.991 17.5364 1.016633 6.412449 -2.458615
2012-04-24 16:01:11 51°16.223 2°56.778 17.5367 1.208056 7.713287 -2.458615
2012-04-24 16:02:11 51°16.111 2°56.552 17.5414 1.275865 8.189291 -2.458615
2012-04-24 16:03:11 51°16.005 2°56.315 17.544 1.095852 6.951521 -2.458615
2012-04-24 16:04:10 51°15.906 2°56.075 17.5323 1.038574 6.562606 -2.458615
2012-04-24 16:05:10 51°15.797 2°55.842 17.5139 1.076999 6.820434 -2.458615
2012-04-24 16:06:10 51°15.658 2°55.65 17.5582 1.043622 6.588 -2.458615
2012-04-24 16:07:11 51°15.519 2°55.451 17.5318 1.574725 10.28292 -2.458615
2012-04-24 16:08:11 51°15.372 2°55.276 17.5356 1.690647 11.10614 -2.458615
2012-04-24 16:09:10 51°15.214 2°55.141 17.5461 1.136753 7.227199 -2.458615
2012-04-24 16:10:11 51°15.037 2°55.032 17.527 1.084313 6.872008 -2.458615
2012-04-24 16:11:10 51°14.864 2°54.94 17.499 1.119238 7.109332 -2.458615
2012-04-24 16:12:10 51°14.676 2°54.976 17.537 1.104299 7.005384 -2.458615
2012-04-24 16:13:10 51°14.49 2°55.066 17.5015 1.071642 6.785103 -2.458615
2012-04-24 16:14:14 51°14.321 2°55.228 17.4833 1.046918 6.617028 -2.458615
2012-04-24 16:15:14 51°14.183 2°55.367 17.5088 1.044034 6.597986 -2.458615
2012-04-24 16:16:14 51°14.069 2°55.464 17.5302 1.061958 6.719773 -2.458615
2012-04-24 16:17:14 51°13.967 2°55.532 17.5468 1.041149 6.577033 -2.458615
2012-04-24 16:18:14 51°13.869 2°55.601 17.5475 1.040016 6.568605 -2.458615
2012-04-24 16:19:14 51°13.778 2°55.677 17.5651 1.037956 6.554111 -2.458615
2012-04-24 16:20:14 51°13.713 2°55.789 17.5784 1.0326 6.516495 -2.458615
2012-04-24 16:21:14 51°13.664 2°55.899 17.5916 1.038368 6.555486 -2.458615
2012-04-24 16:22:14 51°13.642 2°55.984 17.6048 1.032703 6.516131 -2.458615